sensor_id;sensor_type;location;lat;lon;timestamp;P1;durP1;ratioP1;P2;durP2;ratioP2
60026;SDS011;45891;53.006;6.512;2023-05-07T00:01:59;22.60;;;14.27;;
60026;SDS011;45891;53.006;6.512;2023-05-07T00:04:26;19.13;;;14.35;;
60026;SDS011;45891;53.006;6.512;2023-05-07T00:06:53;21.73;;;14.65;;
60026;SDS011;45891;53.006;6.512;2023-05-07T00:09:20;22.35;;;15.25;;
60026;SDS011;45891;53.006;6.512;2023-05-07T00:11:46;24.92;;;16.40;;
60026;SDS011;45891;53.006;6.512;2023-05-07T00:14:12;24.63;;;16.45;;
60026;SDS011;45891;53.006;6.512;2023-05-07T00:16:39;22.88;;;16.23;;
60026;SDS011;45891;53.006;6.512;2023-05-07T00:19:05;24.20;;;15.98;;
60026;SDS011;45891;53.006;6.512;2023-05-07T00:21:31;26.10;;;15.95;;
60026;SDS011;45891;53.006;6.512;2023-05-07T00:23:57;23.52;;;16.60;;
60026;SDS011;45891;53.006;6.512;2023-05-07T00:26:23;24.42;;;16.48;;
60026;SDS011;45891;53.006;6.512;2023-05-07T00:28:49;26.77;;;18.08;;
60026;SDS011;45891;53.006;6.512;2023-05-07T00:31:15;26.55;;;18.58;;
60026;SDS011;45891;53.006;6.512;2023-05-07T00:33:41;26.58;;;17.58;;
60026;SDS011;45891;53.006;6.512;2023-05-07T00:36:07;24.70;;;17.90;;
60026;SDS011;45891;53.006;6.512;2023-05-07T00:38:34;27.15;;;18.50;;
60026;SDS011;45891;53.006;6.512;2023-05-07T00:41:00;24.92;;;18.27;;
60026;SDS011;45891;53.006;6.512;2023-05-07T00:43:27;29.27;;;20.05;;
60026;SDS011;45891;53.006;6.512;2023-05-07T00:45:54;27.98;;;19.40;;
60026;SDS011;45891;53.006;6.512;2023-05-07T00:48:20;28.48;;;19.20;;
60026;SDS011;45891;53.006;6.512;2023-05-07T00:50:47;28.98;;;19.60;;
60026;SDS011;45891;53.006;6.512;2023-05-07T00:53:13;25.98;;;19.52;;
60026;SDS011;45891;53.006;6.512;2023-05-07T00:55:39;31.83;;;21.73;;
60026;SDS011;45891;53.006;6.512;2023-05-07T00:58:06;29.13;;;20.60;;
60026;SDS011;45891;53.006;6.512;2023-05-07T01:00:32;30.42;;;20.42;;
60026;SDS011;45891;53.006;6.512;2023-05-07T01:02:58;28.20;;;19.92;;
60026;SDS011;45891;53.006;6.512;2023-05-07T01:05:24;27.85;;;20.73;;
60026;SDS011;45891;53.006;6.512;2023-05-07T01:07:51;30.58;;;22.08;;
60026;SDS011;45891;53.006;6.512;2023-05-07T01:10:20;30.23;;;22.27;;
60026;SDS011;45891;53.006;6.512;2023-05-07T01:12:47;31.75;;;21.92;;
60026;SDS011;45891;53.006;6.512;2023-05-07T01:15:15;29.52;;;21.25;;
60026;SDS011;45891;53.006;6.512;2023-05-07T01:17:42;30.60;;;21.98;;
60026;SDS011;45891;53.006;6.512;2023-05-07T01:20:09;28.52;;;21.83;;
60026;SDS011;45891;53.006;6.512;2023-05-07T01:22:36;33.00;;;21.75;;
60026;SDS011;45891;53.006;6.512;2023-05-07T01:25:04;30.13;;;21.58;;
60026;SDS011;45891;53.006;6.512;2023-05-07T01:27:31;29.15;;;22.00;;
60026;SDS011;45891;53.006;6.512;2023-05-07T01:29:59;29.73;;;23.00;;
60026;SDS011;45891;53.006;6.512;2023-05-07T01:32:29;32.15;;;22.23;;
60026;SDS011;45891;53.006;6.512;2023-05-07T01:35:03;32.50;;;22.70;;
60026;SDS011;45891;53.006;6.512;2023-05-07T01:37:32;33.75;;;23.90;;
60026;SDS011;45891;53.006;6.512;2023-05-07T01:39:59;34.30;;;24.63;;
60026;SDS011;45891;53.006;6.512;2023-05-07T01:42:27;32.33;;;23.63;;
60026;SDS011;45891;53.006;6.512;2023-05-07T01:44:55;34.42;;;23.42;;
60026;SDS011;45891;53.006;6.512;2023-05-07T01:47:21;34.35;;;24.20;;
60026;SDS011;45891;53.006;6.512;2023-05-07T01:49:48;33.85;;;23.92;;
60026;SDS011;45891;53.006;6.512;2023-05-07T01:52:15;30.58;;;23.77;;
60026;SDS011;45891;53.006;6.512;2023-05-07T01:54:41;34.30;;;24.23;;
60026;SDS011;45891;53.006;6.512;2023-05-07T01:57:08;34.90;;;25.13;;
60026;SDS011;45891;53.006;6.512;2023-05-07T01:59:34;31.67;;;24.38;;
60026;SDS011;45891;53.006;6.512;2023-05-07T02:02:00;34.53;;;24.60;;
60026;SDS011;45891;53.006;6.512;2023-05-07T02:04:26;30.73;;;23.15;;
60026;SDS011;45891;53.006;6.512;2023-05-07T02:06:52;32.50;;;25.23;;
60026;SDS011;45891;53.006;6.512;2023-05-07T02:09:18;31.67;;;24.05;;
60026;SDS011;45891;53.006;6.512;2023-05-07T02:11:45;34.10;;;24.17;;
60026;SDS011;45891;53.006;6.512;2023-05-07T02:14:11;33.15;;;24.70;;
60026;SDS011;45891;53.006;6.512;2023-05-07T02:16:37;35.80;;;26.38;;
60026;SDS011;45891;53.006;6.512;2023-05-07T02:19:03;33.40;;;24.85;;
60026;SDS011;45891;53.006;6.512;2023-05-07T02:21:29;32.63;;;24.42;;
60026;SDS011;45891;53.006;6.512;2023-05-07T02:23:55;33.25;;;25.77;;
60026;SDS011;45891;53.006;6.512;2023-05-07T02:26:21;32.83;;;25.65;;
60026;SDS011;45891;53.006;6.512;2023-05-07T02:28:47;34.42;;;25.40;;
60026;SDS011;45891;53.006;6.512;2023-05-07T02:31:13;36.10;;;25.58;;
60026;SDS011;45891;53.006;6.512;2023-05-07T02:33:39;40.30;;;27.90;;
60026;SDS011;45891;53.006;6.512;2023-05-07T02:36:09;34.03;;;26.23;;
60026;SDS011;45891;53.006;6.512;2023-05-07T02:38:36;35.05;;;27.23;;
60026;SDS011;45891;53.006;6.512;2023-05-07T02:41:02;35.10;;;26.10;;
60026;SDS011;45891;53.006;6.512;2023-05-07T02:43:28;36.42;;;26.95;;
60026;SDS011;45891;53.006;6.512;2023-05-07T02:46:05;37.30;;;27.50;;
60026;SDS011;45891;53.006;6.512;2023-05-07T02:48:32;37.28;;;27.95;;
60026;SDS011;45891;53.006;6.512;2023-05-07T02:50:59;37.50;;;28.60;;
60026;SDS011;45891;53.006;6.512;2023-05-07T02:53:26;36.95;;;28.25;;
60026;SDS011;45891;53.006;6.512;2023-05-07T02:55:55;36.10;;;28.02;;
60026;SDS011;45891;53.006;6.512;2023-05-07T02:58:23;36.05;;;27.55;;
60026;SDS011;45891;53.006;6.512;2023-05-07T03:00:49;39.47;;;29.55;;
60026;SDS011;45891;53.006;6.512;2023-05-07T03:03:15;39.33;;;28.98;;
60026;SDS011;45891;53.006;6.512;2023-05-07T03:05:42;38.22;;;28.50;;
60026;SDS011;45891;53.006;6.512;2023-05-07T03:08:08;40.43;;;30.10;;
60026;SDS011;45891;53.006;6.512;2023-05-07T03:10:35;40.97;;;29.40;;
60026;SDS011;45891;53.006;6.512;2023-05-07T03:13:02;42.20;;;30.97;;
60026;SDS011;45891;53.006;6.512;2023-05-07T03:15:28;42.53;;;31.17;;
60026;SDS011;45891;53.006;6.512;2023-05-07T03:17:55;40.08;;;29.73;;
60026;SDS011;45891;53.006;6.512;2023-05-07T03:20:21;40.42;;;31.02;;
60026;SDS011;45891;53.006;6.512;2023-05-07T03:22:47;42.03;;;30.45;;
60026;SDS011;45891;53.006;6.512;2023-05-07T03:25:13;46.05;;;32.85;;
60026;SDS011;45891;53.006;6.512;2023-05-07T03:27:40;48.97;;;33.25;;
60026;SDS011;45891;53.006;6.512;2023-05-07T03:30:09;46.38;;;31.65;;
60026;SDS011;45891;53.006;6.512;2023-05-07T03:32:36;51.03;;;33.85;;
60026;SDS011;45891;53.006;6.512;2023-05-07T03:35:02;46.08;;;33.15;;
60026;SDS011;45891;53.006;6.512;2023-05-07T03:37:29;45.45;;;33.42;;
60026;SDS011;45891;53.006;6.512;2023-05-07T03:39:55;51.88;;;33.78;;
60026;SDS011;45891;53.006;6.512;2023-05-07T03:42:21;49.15;;;34.85;;
60026;SDS011;45891;53.006;6.512;2023-05-07T03:44:48;46.85;;;33.80;;
60026;SDS011;45891;53.006;6.512;2023-05-07T03:47:14;51.63;;;34.83;;
60026;SDS011;45891;53.006;6.512;2023-05-07T03:49:40;50.25;;;33.80;;
60026;SDS011;45891;53.006;6.512;2023-05-07T03:52:06;46.72;;;32.17;;
60026;SDS011;45891;53.006;6.512;2023-05-07T03:54:32;47.25;;;33.72;;
60026;SDS011;45891;53.006;6.512;2023-05-07T03:56:58;53.35;;;35.28;;
60026;SDS011;45891;53.006;6.512;2023-05-07T03:59:24;47.80;;;34.40;;
60026;SDS011;45891;53.006;6.512;2023-05-07T04:01:51;45.85;;;33.83;;
60026;SDS011;45891;53.006;6.512;2023-05-07T04:04:17;48.80;;;33.80;;
60026;SDS011;45891;53.006;6.512;2023-05-07T04:06:43;49.97;;;34.25;;
60026;SDS011;45891;53.006;6.512;2023-05-07T04:09:09;47.10;;;33.75;;
60026;SDS011;45891;53.006;6.512;2023-05-07T04:11:35;46.28;;;32.47;;
60026;SDS011;45891;53.006;6.512;2023-05-07T04:14:01;49.53;;;34.00;;
60026;SDS011;45891;53.006;6.512;2023-05-07T04:16:27;52.53;;;36.42;;
60026;SDS011;45891;53.006;6.512;2023-05-07T04:18:53;45.80;;;33.22;;
60026;SDS011;45891;53.006;6.512;2023-05-07T04:21:20;48.15;;;34.17;;
60026;SDS011;45891;53.006;6.512;2023-05-07T04:23:46;46.85;;;33.47;;
60026;SDS011;45891;53.006;6.512;2023-05-07T04:26:13;50.15;;;33.97;;
60026;SDS011;45891;53.006;6.512;2023-05-07T04:28:40;50.58;;;35.28;;
60026;SDS011;45891;53.006;6.512;2023-05-07T04:31:07;45.05;;;32.67;;
60026;SDS011;45891;53.006;6.512;2023-05-07T04:33:33;49.40;;;34.70;;
60026;SDS011;45891;53.006;6.512;2023-05-07T04:36:03;47.28;;;33.15;;
60026;SDS011;45891;53.006;6.512;2023-05-07T04:38:30;46.42;;;33.60;;
60026;SDS011;45891;53.006;6.512;2023-05-07T04:40:57;48.92;;;32.60;;
60026;SDS011;45891;53.006;6.512;2023-05-07T04:43:28;47.65;;;33.88;;
60026;SDS011;45891;53.006;6.512;2023-05-07T04:45:54;47.50;;;33.10;;
60026;SDS011;45891;53.006;6.512;2023-05-07T04:48:20;48.75;;;34.03;;
60026;SDS011;45891;53.006;6.512;2023-05-07T04:50:47;45.17;;;33.40;;
60026;SDS011;45891;53.006;6.512;2023-05-07T04:53:14;47.88;;;33.63;;
60026;SDS011;45891;53.006;6.512;2023-05-07T04:55:40;45.72;;;32.53;;
60026;SDS011;45891;53.006;6.512;2023-05-07T04:58:06;44.67;;;32.40;;
60026;SDS011;45891;53.006;6.512;2023-05-07T05:00:33;45.22;;;31.45;;
60026;SDS011;45891;53.006;6.512;2023-05-07T05:02:59;45.92;;;32.75;;
60026;SDS011;45891;53.006;6.512;2023-05-07T05:05:25;45.53;;;32.03;;
60026;SDS011;45891;53.006;6.512;2023-05-07T05:07:51;44.70;;;32.53;;
60026;SDS011;45891;53.006;6.512;2023-05-07T05:10:21;43.38;;;29.60;;
60026;SDS011;45891;53.006;6.512;2023-05-07T05:12:47;42.42;;;31.63;;
60026;SDS011;45891;53.006;6.512;2023-05-07T05:15:13;43.35;;;30.95;;
60026;SDS011;45891;53.006;6.512;2023-05-07T05:17:40;43.67;;;31.17;;
60026;SDS011;45891;53.006;6.512;2023-05-07T05:20:06;43.90;;;31.40;;
60026;SDS011;45891;53.006;6.512;2023-05-07T05:22:33;41.90;;;30.73;;
60026;SDS011;45891;53.006;6.512;2023-05-07T05:24:59;42.17;;;30.20;;
60026;SDS011;45891;53.006;6.512;2023-05-07T05:27:26;41.17;;;30.65;;
60026;SDS011;45891;53.006;6.512;2023-05-07T05:29:52;38.33;;;28.75;;
60026;SDS011;45891;53.006;6.512;2023-05-07T05:32:18;39.35;;;27.05;;
60026;SDS011;45891;53.006;6.512;2023-05-07T05:34:44;43.13;;;30.48;;
60026;SDS011;45891;53.006;6.512;2023-05-07T05:37:11;40.80;;;28.75;;
60026;SDS011;45891;53.006;6.512;2023-05-07T05:39:37;38.83;;;28.35;;
60026;SDS011;45891;53.006;6.512;2023-05-07T05:42:03;37.72;;;28.15;;
60026;SDS011;45891;53.006;6.512;2023-05-07T05:44:29;36.20;;;27.02;;
60026;SDS011;45891;53.006;6.512;2023-05-07T05:46:55;39.30;;;27.00;;
60026;SDS011;45891;53.006;6.512;2023-05-07T05:49:23;35.35;;;26.40;;
60026;SDS011;45891;53.006;6.512;2023-05-07T05:51:49;38.58;;;26.77;;
60026;SDS011;45891;53.006;6.512;2023-05-07T05:54:15;35.13;;;26.63;;
60026;SDS011;45891;53.006;6.512;2023-05-07T05:56:41;36.58;;;27.05;;
60026;SDS011;45891;53.006;6.512;2023-05-07T05:59:07;35.10;;;26.40;;
60026;SDS011;45891;53.006;6.512;2023-05-07T06:01:34;34.58;;;25.80;;
60026;SDS011;45891;53.006;6.512;2023-05-07T06:04:00;32.53;;;24.55;;
60026;SDS011;45891;53.006;6.512;2023-05-07T06:06:26;33.72;;;25.27;;
60026;SDS011;45891;53.006;6.512;2023-05-07T06:08:52;33.42;;;25.17;;
60026;SDS011;45891;53.006;6.512;2023-05-07T06:11:18;31.95;;;25.40;;
60026;SDS011;45891;53.006;6.512;2023-05-07T06:13:45;35.20;;;25.00;;
60026;SDS011;45891;53.006;6.512;2023-05-07T06:16:11;35.80;;;25.85;;
60026;SDS011;45891;53.006;6.512;2023-05-07T06:18:37;30.60;;;24.30;;
60026;SDS011;45891;53.006;6.512;2023-05-07T06:21:03;31.27;;;24.65;;
60026;SDS011;45891;53.006;6.512;2023-05-07T06:23:30;32.03;;;25.15;;
60026;SDS011;45891;53.006;6.512;2023-05-07T06:25:56;33.38;;;25.00;;
60026;SDS011;45891;53.006;6.512;2023-05-07T06:28:22;30.50;;;23.85;;
60026;SDS011;45891;53.006;6.512;2023-05-07T06:30:48;31.42;;;24.42;;
60026;SDS011;45891;53.006;6.512;2023-05-07T06:33:15;31.27;;;24.52;;
60026;SDS011;45891;53.006;6.512;2023-05-07T06:35:41;32.97;;;23.60;;
60026;SDS011;45891;53.006;6.512;2023-05-07T06:38:07;33.45;;;24.60;;
60026;SDS011;45891;53.006;6.512;2023-05-07T06:40:33;30.05;;;24.25;;
60026;SDS011;45891;53.006;6.512;2023-05-07T06:43:00;31.95;;;24.42;;
60026;SDS011;45891;53.006;6.512;2023-05-07T06:45:26;32.90;;;25.30;;
60026;SDS011;45891;53.006;6.512;2023-05-07T06:47:52;35.35;;;26.33;;
60026;SDS011;45891;53.006;6.512;2023-05-07T06:50:18;34.17;;;24.92;;
60026;SDS011;45891;53.006;6.512;2023-05-07T06:52:44;31.85;;;23.80;;
60026;SDS011;45891;53.006;6.512;2023-05-07T06:55:10;32.88;;;24.83;;
60026;SDS011;45891;53.006;6.512;2023-05-07T06:57:37;33.42;;;24.90;;
60026;SDS011;45891;53.006;6.512;2023-05-07T07:00:04;31.48;;;24.90;;
60026;SDS011;45891;53.006;6.512;2023-05-07T07:02:32;31.63;;;23.65;;
60026;SDS011;45891;53.006;6.512;2023-05-07T07:04:58;33.95;;;24.73;;
60026;SDS011;45891;53.006;6.512;2023-05-07T07:07:24;30.08;;;23.83;;
60026;SDS011;45891;53.006;6.512;2023-05-07T07:09:50;33.00;;;24.40;;
60026;SDS011;45891;53.006;6.512;2023-05-07T07:12:16;35.20;;;25.70;;
60026;SDS011;45891;53.006;6.512;2023-05-07T07:14:43;30.65;;;24.15;;
60026;SDS011;45891;53.006;6.512;2023-05-07T07:17:09;32.35;;;24.55;;
60026;SDS011;45891;53.006;6.512;2023-05-07T07:19:35;30.67;;;24.45;;
60026;SDS011;45891;53.006;6.512;2023-05-07T07:22:01;30.27;;;24.35;;
60026;SDS011;45891;53.006;6.512;2023-05-07T07:24:27;35.05;;;24.75;;
60026;SDS011;45891;53.006;6.512;2023-05-07T07:26:53;32.80;;;24.38;;
60026;SDS011;45891;53.006;6.512;2023-05-07T07:29:20;31.23;;;24.10;;
60026;SDS011;45891;53.006;6.512;2023-05-07T07:31:47;30.20;;;24.30;;
60026;SDS011;45891;53.006;6.512;2023-05-07T07:34:15;33.55;;;24.60;;
60026;SDS011;45891;53.006;6.512;2023-05-07T07:36:41;34.53;;;25.13;;
60026;SDS011;45891;53.006;6.512;2023-05-07T07:39:07;33.70;;;25.60;;
60026;SDS011;45891;53.006;6.512;2023-05-07T07:41:33;31.83;;;24.02;;
60026;SDS011;45891;53.006;6.512;2023-05-07T07:44:00;33.28;;;22.88;;
60026;SDS011;45891;53.006;6.512;2023-05-07T07:46:26;32.95;;;25.38;;
60026;SDS011;45891;53.006;6.512;2023-05-07T07:48:52;31.75;;;25.02;;
60026;SDS011;45891;53.006;6.512;2023-05-07T07:51:21;29.98;;;23.55;;
60026;SDS011;45891;53.006;6.512;2023-05-07T07:53:47;30.38;;;24.52;;
60026;SDS011;45891;53.006;6.512;2023-05-07T07:56:13;36.15;;;24.38;;
60026;SDS011;45891;53.006;6.512;2023-05-07T07:58:39;31.60;;;24.75;;
60026;SDS011;45891;53.006;6.512;2023-05-07T08:01:08;32.17;;;24.98;;
60026;SDS011;45891;53.006;6.512;2023-05-07T08:03:34;31.45;;;24.83;;
60026;SDS011;45891;53.006;6.512;2023-05-07T08:06:00;32.38;;;24.65;;
60026;SDS011;45891;53.006;6.512;2023-05-07T08:08:27;31.17;;;23.88;;
60026;SDS011;45891;53.006;6.512;2023-05-07T08:10:53;31.67;;;25.63;;
60026;SDS011;45891;53.006;6.512;2023-05-07T08:13:19;32.28;;;25.70;;
60026;SDS011;45891;53.006;6.512;2023-05-07T08:15:45;32.95;;;24.73;;
60026;SDS011;45891;53.006;6.512;2023-05-07T08:18:11;32.05;;;24.40;;
60026;SDS011;45891;53.006;6.512;2023-05-07T08:20:37;32.97;;;25.60;;
60026;SDS011;45891;53.006;6.512;2023-05-07T08:23:05;33.17;;;24.65;;
60026;SDS011;45891;53.006;6.512;2023-05-07T08:25:34;32.17;;;23.70;;
60026;SDS011;45891;53.006;6.512;2023-05-07T08:28:00;31.23;;;23.75;;
60026;SDS011;45891;53.006;6.512;2023-05-07T08:30:27;30.42;;;23.23;;
60026;SDS011;45891;53.006;6.512;2023-05-07T08:32:53;28.75;;;23.35;;
60026;SDS011;45891;53.006;6.512;2023-05-07T08:35:19;27.08;;;20.70;;
60026;SDS011;45891;53.006;6.512;2023-05-07T08:37:45;28.88;;;22.42;;
60026;SDS011;45891;53.006;6.512;2023-05-07T08:40:11;29.95;;;23.45;;
60026;SDS011;45891;53.006;6.512;2023-05-07T08:42:37;26.50;;;21.77;;
60026;SDS011;45891;53.006;6.512;2023-05-07T08:45:10;30.33;;;23.50;;
60026;SDS011;45891;53.006;6.512;2023-05-07T08:47:58;29.30;;;23.33;;
60026;SDS011;45891;53.006;6.512;2023-05-07T08:50:25;30.48;;;23.00;;
60026;SDS011;45891;53.006;6.512;2023-05-07T08:52:51;29.98;;;22.80;;
60026;SDS011;45891;53.006;6.512;2023-05-07T08:55:18;27.02;;;21.70;;
60026;SDS011;45891;53.006;6.512;2023-05-07T08:57:44;28.38;;;22.38;;
60026;SDS011;45891;53.006;6.512;2023-05-07T09:00:10;27.35;;;22.60;;
60026;SDS011;45891;53.006;6.512;2023-05-07T09:02:37;26.17;;;21.30;;
60026;SDS011;45891;53.006;6.512;2023-05-07T09:05:03;26.15;;;21.45;;
60026;SDS011;45891;53.006;6.512;2023-05-07T09:07:30;27.33;;;21.73;;
60026;SDS011;45891;53.006;6.512;2023-05-07T09:09:56;26.55;;;21.65;;
60026;SDS011;45891;53.006;6.512;2023-05-07T09:12:23;26.75;;;21.08;;
60026;SDS011;45891;53.006;6.512;2023-05-07T09:14:49;26.20;;;21.15;;
60026;SDS011;45891;53.006;6.512;2023-05-07T09:17:16;23.55;;;20.40;;
60026;SDS011;45891;53.006;6.512;2023-05-07T09:19:43;28.30;;;20.70;;
60026;SDS011;45891;53.006;6.512;2023-05-07T09:22:10;25.65;;;21.00;;
60026;SDS011;45891;53.006;6.512;2023-05-07T09:24:37;23.67;;;19.92;;
60026;SDS011;45891;53.006;6.512;2023-05-07T09:27:07;22.70;;;18.48;;
60026;SDS011;45891;53.006;6.512;2023-05-07T09:29:35;23.58;;;18.58;;
60026;SDS011;45891;53.006;6.512;2023-05-07T09:32:03;22.95;;;18.02;;
60026;SDS011;45891;53.006;6.512;2023-05-07T09:34:33;21.95;;;18.25;;
60026;SDS011;45891;53.006;6.512;2023-05-07T09:37:00;21.75;;;18.42;;
60026;SDS011;45891;53.006;6.512;2023-05-07T09:39:42;22.10;;;17.70;;
60026;SDS011;45891;53.006;6.512;2023-05-07T09:42:10;21.48;;;17.42;;
60026;SDS011;45891;53.006;6.512;2023-05-07T09:44:38;22.10;;;16.20;;
60026;SDS011;45891;53.006;6.512;2023-05-07T09:47:05;21.55;;;18.10;;
60026;SDS011;45891;53.006;6.512;2023-05-07T09:49:33;21.17;;;17.30;;
60026;SDS011;45891;53.006;6.512;2023-05-07T09:52:02;20.33;;;16.38;;
60026;SDS011;45891;53.006;6.512;2023-05-07T09:54:32;21.13;;;17.13;;
60026;SDS011;45891;53.006;6.512;2023-05-07T09:56:59;20.20;;;16.30;;
60026;SDS011;45891;53.006;6.512;2023-05-07T09:59:28;19.10;;;15.82;;
60026;SDS011;45891;53.006;6.512;2023-05-07T10:01:57;21.17;;;15.82;;
60026;SDS011;45891;53.006;6.512;2023-05-07T10:04:24;19.15;;;15.60;;
60026;SDS011;45891;53.006;6.512;2023-05-07T10:06:51;19.33;;;15.27;;
60026;SDS011;45891;53.006;6.512;2023-05-07T10:09:19;19.83;;;15.88;;
60026;SDS011;45891;53.006;6.512;2023-05-07T10:11:46;18.60;;;14.85;;
60026;SDS011;45891;53.006;6.512;2023-05-07T10:14:14;18.15;;;14.48;;
60026;SDS011;45891;53.006;6.512;2023-05-07T10:16:42;18.05;;;14.73;;
60026;SDS011;45891;53.006;6.512;2023-05-07T10:19:08;18.65;;;14.38;;
60026;SDS011;45891;53.006;6.512;2023-05-07T10:21:39;17.88;;;14.27;;
60026;SDS011;45891;53.006;6.512;2023-05-07T10:24:10;26.08;;;14.18;;
60026;SDS011;45891;53.006;6.512;2023-05-07T10:26:44;17.98;;;13.98;;
60026;SDS011;45891;53.006;6.512;2023-05-07T10:29:24;18.42;;;13.98;;
60026;SDS011;45891;53.006;6.512;2023-05-07T10:34:45;17.88;;;13.07;;
60026;SDS011;45891;53.006;6.512;2023-05-07T10:37:15;16.50;;;13.27;;
60026;SDS011;45891;53.006;6.512;2023-05-07T10:39:41;16.85;;;13.27;;
60026;SDS011;45891;53.006;6.512;2023-05-07T10:42:08;16.65;;;12.73;;
60026;SDS011;45891;53.006;6.512;2023-05-07T10:44:38;16.08;;;12.40;;
60026;SDS011;45891;53.006;6.512;2023-05-07T10:49:35;15.05;;;12.07;;
60026;SDS011;45891;53.006;6.512;2023-05-07T10:52:11;18.23;;;11.52;;
60026;SDS011;45891;53.006;6.512;2023-05-07T10:54:44;16.02;;;12.65;;
60026;SDS011;45891;53.006;6.512;2023-05-07T11:05:29;15.38;;;11.60;;
60026;SDS011;45891;53.006;6.512;2023-05-07T11:08:03;15.80;;;11.52;;
60026;SDS011;45891;53.006;6.512;2023-05-07T11:10:49;15.68;;;11.60;;
60026;SDS011;45891;53.006;6.512;2023-05-07T11:13:40;17.10;;;12.23;;
60026;SDS011;45891;53.006;6.512;2023-05-07T11:16:23;15.80;;;11.85;;
60026;SDS011;45891;53.006;6.512;2023-05-07T11:18:54;16.05;;;11.50;;
60026;SDS011;45891;53.006;6.512;2023-05-07T11:24:04;13.55;;;11.07;;
60026;SDS011;45891;53.006;6.512;2023-05-07T11:26:41;15.00;;;10.82;;
60026;SDS011;45891;53.006;6.512;2023-05-07T11:29:12;14.02;;;11.10;;
60026;SDS011;45891;53.006;6.512;2023-05-07T11:31:51;17.60;;;11.25;;
60026;SDS011;45891;53.006;6.512;2023-05-07T11:34:22;14.23;;;11.18;;
60026;SDS011;45891;53.006;6.512;2023-05-07T11:36:49;14.63;;;11.38;;
60026;SDS011;45891;53.006;6.512;2023-05-07T11:41:51;14.85;;;10.63;;
60026;SDS011;45891;53.006;6.512;2023-05-07T11:44:17;13.45;;;10.70;;
60026;SDS011;45891;53.006;6.512;2023-05-07T11:46:44;12.88;;;9.80;;
60026;SDS011;45891;53.006;6.512;2023-05-07T11:49:10;14.30;;;11.00;;
60026;SDS011;45891;53.006;6.512;2023-05-07T11:51:36;14.20;;;11.32;;
60026;SDS011;45891;53.006;6.512;2023-05-07T11:54:04;15.00;;;11.68;;
60026;SDS011;45891;53.006;6.512;2023-05-07T11:56:34;13.45;;;10.77;;
60026;SDS011;45891;53.006;6.512;2023-05-07T11:59:04;14.95;;;11.30;;
60026;SDS011;45891;53.006;6.512;2023-05-07T12:01:30;15.00;;;11.70;;
60026;SDS011;45891;53.006;6.512;2023-05-07T12:03:56;14.48;;;11.55;;
60026;SDS011;45891;53.006;6.512;2023-05-07T12:06:22;13.88;;;11.43;;
60026;SDS011;45891;53.006;6.512;2023-05-07T12:08:48;15.20;;;12.65;;
60026;SDS011;45891;53.006;6.512;2023-05-07T12:11:24;14.82;;;11.25;;
60026;SDS011;45891;53.006;6.512;2023-05-07T12:13:51;14.48;;;11.35;;
60026;SDS011;45891;53.006;6.512;2023-05-07T12:16:18;17.42;;;14.45;;
60026;SDS011;45891;53.006;6.512;2023-05-07T12:18:45;15.57;;;11.68;;
60026;SDS011;45891;53.006;6.512;2023-05-07T12:21:12;19.20;;;12.13;;
60026;SDS011;45891;53.006;6.512;2023-05-07T12:23:39;16.70;;;13.43;;
60026;SDS011;45891;53.006;6.512;2023-05-07T12:26:06;15.13;;;12.02;;
60026;SDS011;45891;53.006;6.512;2023-05-07T12:28:36;16.40;;;12.85;;
60026;SDS011;45891;53.006;6.512;2023-05-07T12:31:04;14.77;;;11.88;;
60026;SDS011;45891;53.006;6.512;2023-05-07T12:33:31;15.52;;;11.80;;
60026;SDS011;45891;53.006;6.512;2023-05-07T12:35:57;16.55;;;12.38;;
60026;SDS011;45891;53.006;6.512;2023-05-07T12:38:32;15.02;;;11.13;;
60026;SDS011;45891;53.006;6.512;2023-05-07T12:41:01;13.10;;;10.68;;
60026;SDS011;45891;53.006;6.512;2023-05-07T12:43:27;14.50;;;11.23;;
60026;SDS011;45891;53.006;6.512;2023-05-07T12:45:55;13.73;;;10.63;;
60026;SDS011;45891;53.006;6.512;2023-05-07T12:48:23;13.45;;;10.90;;
60026;SDS011;45891;53.006;6.512;2023-05-07T12:50:56;13.30;;;11.02;;
60026;SDS011;45891;53.006;6.512;2023-05-07T12:55:50;14.27;;;10.55;;
60026;SDS011;45891;53.006;6.512;2023-05-07T12:58:25;13.70;;;10.68;;
60026;SDS011;45891;53.006;6.512;2023-05-07T13:00:53;14.52;;;10.38;;
60026;SDS011;45891;53.006;6.512;2023-05-07T13:05:54;18.15;;;10.90;;
60026;SDS011;45891;53.006;6.512;2023-05-07T13:08:27;13.52;;;10.80;;
60026;SDS011;45891;53.006;6.512;2023-05-07T13:10:56;15.98;;;11.35;;
60026;SDS011;45891;53.006;6.512;2023-05-07T13:13:24;14.57;;;11.60;;
60026;SDS011;45891;53.006;6.512;2023-05-07T13:15:50;13.85;;;10.80;;
60026;SDS011;45891;53.006;6.512;2023-05-07T13:18:17;14.63;;;11.75;;
60026;SDS011;45891;53.006;6.512;2023-05-07T13:20:43;14.70;;;11.93;;
60026;SDS011;45891;53.006;6.512;2023-05-07T13:23:09;17.63;;;11.23;;
60026;SDS011;45891;53.006;6.512;2023-05-07T13:25:35;14.00;;;10.80;;
60026;SDS011;45891;53.006;6.512;2023-05-07T13:28:01;14.32;;;10.60;;
60026;SDS011;45891;53.006;6.512;2023-05-07T13:30:28;14.35;;;10.50;;
60026;SDS011;45891;53.006;6.512;2023-05-07T13:32:55;13.57;;;10.18;;
60026;SDS011;45891;53.006;6.512;2023-05-07T13:35:21;13.52;;;10.30;;
60026;SDS011;45891;53.006;6.512;2023-05-07T13:37:47;12.88;;;9.70;;
60026;SDS011;45891;53.006;6.512;2023-05-07T13:40:14;12.55;;;9.93;;
60026;SDS011;45891;53.006;6.512;2023-05-07T13:42:40;13.00;;;10.15;;
60026;SDS011;45891;53.006;6.512;2023-05-07T13:45:07;14.25;;;10.15;;
60026;SDS011;45891;53.006;6.512;2023-05-07T13:47:34;14.05;;;9.70;;
60026;SDS011;45891;53.006;6.512;2023-05-07T13:50:00;14.38;;;9.38;;
60026;SDS011;45891;53.006;6.512;2023-05-07T13:52:26;13.63;;;9.88;;
60026;SDS011;45891;53.006;6.512;2023-05-07T13:54:52;15.13;;;9.70;;
60026;SDS011;45891;53.006;6.512;2023-05-07T13:57:18;12.32;;;9.15;;
60026;SDS011;45891;53.006;6.512;2023-05-07T13:59:45;12.10;;;9.25;;
60026;SDS011;45891;53.006;6.512;2023-05-07T14:02:11;11.50;;;8.75;;
60026;SDS011;45891;53.006;6.512;2023-05-07T14:04:37;11.88;;;9.15;;
60026;SDS011;45891;53.006;6.512;2023-05-07T14:07:04;13.98;;;8.68;;
60026;SDS011;45891;53.006;6.512;2023-05-07T14:09:30;12.48;;;8.70;;
60026;SDS011;45891;53.006;6.512;2023-05-07T14:11:56;11.50;;;8.05;;
60026;SDS011;45891;53.006;6.512;2023-05-07T14:14:23;12.70;;;7.90;;
60026;SDS011;45891;53.006;6.512;2023-05-07T14:16:49;12.55;;;9.15;;
60026;SDS011;45891;53.006;6.512;2023-05-07T14:19:15;13.40;;;8.60;;
60026;SDS011;45891;53.006;6.512;2023-05-07T14:21:41;10.32;;;7.43;;
60026;SDS011;45891;53.006;6.512;2023-05-07T14:24:07;13.52;;;8.20;;
60026;SDS011;45891;53.006;6.512;2023-05-07T14:26:34;10.95;;;8.20;;
60026;SDS011;45891;53.006;6.512;2023-05-07T14:29:00;12.18;;;8.18;;
60026;SDS011;45891;53.006;6.512;2023-05-07T14:31:26;11.80;;;8.13;;
60026;SDS011;45891;53.006;6.512;2023-05-07T14:33:52;11.23;;;8.30;;
60026;SDS011;45891;53.006;6.512;2023-05-07T14:36:19;11.60;;;7.72;;
60026;SDS011;45891;53.006;6.512;2023-05-07T14:38:51;10.93;;;8.00;;
60026;SDS011;45891;53.006;6.512;2023-05-07T14:41:20;11.35;;;8.07;;
60026;SDS011;45891;53.006;6.512;2023-05-07T14:43:47;11.98;;;7.30;;
60026;SDS011;45891;53.006;6.512;2023-05-07T14:46:16;10.80;;;8.02;;
60026;SDS011;45891;53.006;6.512;2023-05-07T14:48:43;11.50;;;8.23;;